createdAt,value
2022-11-09T00:00:13.758Z,2.30
2022-11-09T00:02:43.881Z,2.95
2022-11-09T00:05:10.409Z,2.42
2022-11-09T00:07:36.725Z,1.85
2022-11-09T00:10:03.273Z,1.83
2022-11-09T00:12:29.576Z,2.90
2022-11-09T00:14:55.835Z,2.35
2022-11-09T00:17:22.113Z,2.30
2022-11-09T00:19:48.378Z,2.05
2022-11-09T00:22:14.725Z,2.30
2022-11-09T00:24:41.071Z,2.25
2022-11-09T00:27:07.318Z,3.38
2022-11-09T00:29:33.563Z,2.33
2022-11-09T00:31:59.839Z,2.30
2022-11-09T00:34:26.084Z,2.25
2022-11-09T00:36:52.341Z,2.05
2022-11-09T00:39:18.712Z,2.25
2022-11-09T00:41:45.033Z,2.30
2022-11-09T00:44:11.261Z,1.80
2022-11-09T00:46:37.556Z,1.83
2022-11-09T00:49:04.121Z,2.30
2022-11-09T00:51:31.450Z,1.80
2022-11-09T00:53:58.433Z,2.03
2022-11-09T00:56:24.937Z,2.85
2022-11-09T00:58:52.806Z,2.53
2022-11-09T01:01:19.621Z,2.20
2022-11-09T01:03:46.045Z,2.35
2022-11-09T01:06:16.754Z,3.03
2022-11-09T01:08:43.357Z,1.92
2022-11-09T01:11:10.150Z,1.67
2022-11-09T01:13:37.270Z,2.13
2022-11-09T01:16:11.662Z,2.10
2022-11-09T01:18:38.304Z,2.47
2022-11-09T01:21:05.616Z,2.50
2022-11-09T01:23:32.183Z,2.17
2022-11-09T01:25:59.590Z,2.63
2022-11-09T01:28:25.865Z,1.98
2022-11-09T01:30:52.122Z,2.17
2022-11-09T01:33:18.587Z,2.75
2022-11-09T01:35:45.142Z,2.63
2022-11-09T01:38:11.525Z,2.47
2022-11-09T01:40:38.540Z,1.45
2022-11-09T01:43:18.744Z,3.35
2022-11-09T01:45:46.715Z,2.58
2022-11-09T01:48:16.167Z,2.40
2022-11-09T01:50:46.129Z,3.33
2022-11-09T01:53:17.798Z,1.80
2022-11-09T01:55:45.246Z,1.70
2022-11-09T01:58:15.248Z,2.38
2022-11-09T02:00:43.087Z,2.10
2022-11-09T02:03:21.977Z,2.70
2022-11-09T02:05:49.355Z,2.20
2022-11-09T02:08:17.125Z,2.22
2022-11-09T02:10:50.137Z,2.17
2022-11-09T02:13:17.559Z,2.25
2022-11-09T02:15:45.869Z,2.75
2022-11-09T02:18:12.546Z,2.10
2022-11-09T02:20:47.915Z,2.20
2022-11-09T02:23:14.280Z,2.42
2022-11-09T02:25:40.592Z,1.67
2022-11-09T02:28:07.191Z,2.63
2022-11-09T02:30:34.613Z,2.45
2022-11-09T02:33:00.944Z,3.17
2022-11-09T02:35:27.214Z,2.50
2022-11-09T02:37:53.464Z,1.90
2022-11-09T02:40:21.959Z,2.45
2022-11-09T02:42:48.229Z,1.85
2022-11-09T02:45:14.503Z,2.47
2022-11-09T02:47:40.765Z,2.00
2022-11-09T02:50:07.153Z,2.20
2022-11-09T02:52:33.445Z,1.70
2022-11-09T02:54:59.747Z,1.85
2022-11-09T02:57:26.031Z,2.42
2022-11-09T02:59:52.318Z,2.35
2022-11-09T03:02:18.609Z,2.97
2022-11-09T03:04:44.895Z,2.10
2022-11-09T03:07:11.225Z,2.83
2022-11-09T03:09:37.584Z,2.20
2022-11-09T03:12:23.862Z,2.05
2022-11-09T03:14:50.134Z,1.95
2022-11-09T03:17:17.525Z,2.55
2022-11-09T03:19:44.253Z,1.85
2022-11-09T03:22:10.662Z,2.08
2022-11-09T03:24:37.047Z,3.22
2022-11-09T03:27:03.324Z,2.35
2022-11-09T03:29:29.587Z,2.63
2022-11-09T03:31:55.920Z,2.08
2022-11-09T03:34:22.198Z,2.28
2022-11-09T03:36:48.850Z,2.35
2022-11-09T03:39:15.124Z,2.83
2022-11-09T03:41:41.406Z,2.22
2022-11-09T03:44:07.715Z,2.40
2022-11-09T03:46:33.984Z,1.92
2022-11-09T03:49:00.269Z,1.90
2022-11-09T03:51:26.530Z,2.08
2022-11-09T03:53:52.845Z,1.88
2022-11-09T03:56:19.161Z,2.78
2022-11-09T03:58:45.434Z,2.28
2022-11-09T04:01:11.898Z,2.75
2022-11-09T04:03:38.504Z,2.38
2022-11-09T04:06:04.788Z,1.90
2022-11-09T04:08:31.089Z,1.58
2022-11-09T04:10:57.365Z,2.30
2022-11-09T04:13:23.830Z,2.42
2022-11-09T04:15:50.082Z,2.47
2022-11-09T04:18:16.681Z,2.38
2022-11-09T04:20:43.259Z,2.22
2022-11-09T04:23:10.950Z,1.70
2022-11-09T04:25:38.218Z,2.65
2022-11-09T04:28:05.112Z,1.73
2022-11-09T04:30:32.924Z,2.05
2022-11-09T04:33:00.283Z,2.38
2022-11-09T04:35:27.221Z,1.85
2022-11-09T04:37:57.278Z,2.22
2022-11-09T04:40:24.447Z,2.08
2022-11-09T04:42:50.734Z,2.42
2022-11-09T04:45:17.150Z,1.80
2022-11-09T04:47:43.423Z,2.40
2022-11-09T04:50:09.876Z,2.40
2022-11-09T04:52:36.142Z,2.30
2022-11-09T04:55:02.422Z,2.70
2022-11-09T04:57:28.674Z,2.10
2022-11-09T04:59:54.941Z,2.35
2022-11-09T05:02:21.218Z,2.00
2022-11-09T05:04:47.477Z,2.67
2022-11-09T05:07:13.792Z,2.15
2022-11-09T05:09:40.108Z,1.90
2022-11-09T05:12:06.506Z,2.20
2022-11-09T05:14:32.808Z,3.42
2022-11-09T05:16:59.124Z,2.90
2022-11-09T05:19:25.384Z,1.80
2022-11-09T05:21:51.662Z,1.65
2022-11-09T05:24:17.942Z,2.20
2022-11-09T05:26:44.193Z,1.90
2022-11-09T05:29:11.336Z,1.73
2022-11-09T05:31:38.357Z,2.28
2022-11-09T05:34:05.298Z,2.55
2022-11-09T05:36:33.445Z,2.00
2022-11-09T05:38:59.841Z,2.20
2022-11-09T05:41:26.623Z,2.22
2022-11-09T05:43:52.946Z,1.90
2022-11-09T05:46:19.634Z,2.70
2022-11-09T05:48:46.347Z,2.38
2022-11-09T05:51:13.581Z,2.83
2022-11-09T05:53:45.004Z,2.65
2022-11-09T05:56:13.026Z,2.47
2022-11-09T05:58:39.481Z,3.30
2022-11-09T06:01:06.746Z,2.40
2022-11-09T06:03:33.060Z,2.97
2022-11-09T06:06:08.026Z,2.40
2022-11-09T06:08:35.180Z,2.03
2022-11-09T06:11:02.932Z,2.55
2022-11-09T06:13:29.518Z,2.20
2022-11-09T06:15:56.558Z,2.50
2022-11-09T06:18:23.367Z,2.47
2022-11-09T06:20:53.191Z,1.95
2022-11-09T06:23:20.004Z,2.53
2022-11-09T06:25:46.586Z,2.17
2022-11-09T06:28:12.853Z,2.65
2022-11-09T06:30:39.123Z,2.95
2022-11-09T06:33:06.662Z,2.22
2022-11-09T06:35:32.911Z,4.65
2022-11-09T06:38:00.004Z,4.00
2022-11-09T06:40:26.561Z,3.50
2022-11-09T06:42:52.927Z,3.25
2022-11-09T06:45:19.241Z,2.53
2022-11-09T06:47:45.489Z,3.58
2022-11-09T06:50:12.386Z,3.10
2022-11-09T06:52:38.683Z,3.28
2022-11-09T06:55:05.186Z,2.08
2022-11-09T06:57:31.520Z,2.63
2022-11-09T07:00:00.145Z,4.10
2022-11-09T07:02:26.411Z,2.10
2022-11-09T07:04:52.786Z,2.78
2022-11-09T07:07:22.329Z,2.47
2022-11-09T07:09:51.286Z,3.47
2022-11-09T07:12:17.538Z,2.97
2022-11-09T07:14:43.935Z,3.65
2022-11-09T07:17:10.193Z,2.20
2022-11-09T07:19:36.474Z,2.05
2022-11-09T07:22:02.803Z,2.35
2022-11-09T07:24:29.051Z,3.00
2022-11-09T07:26:55.335Z,3.67
2022-11-09T07:29:21.586Z,2.83
2022-11-09T07:31:47.864Z,3.88
2022-11-09T07:34:14.325Z,2.75
2022-11-09T07:36:40.627Z,2.83
2022-11-09T07:39:06.903Z,2.70
2022-11-09T07:41:34.923Z,2.90
2022-11-09T07:44:01.485Z,2.55
2022-11-09T07:46:27.747Z,2.85
2022-11-09T07:48:54.017Z,2.83
2022-11-09T07:51:20.475Z,2.45
2022-11-09T07:53:46.759Z,2.65
2022-11-09T07:56:13.106Z,3.30
2022-11-09T07:58:39.466Z,4.25
2022-11-09T08:01:11.994Z,2.83
2022-11-09T08:03:38.277Z,3.38
2022-11-09T08:06:04.694Z,3.15
2022-11-09T08:08:31.086Z,2.45
2022-11-09T08:10:57.967Z,2.30
2022-11-09T08:13:24.493Z,2.67
2022-11-09T08:15:50.934Z,3.00
2022-11-09T08:18:18.380Z,2.75
2022-11-09T08:20:44.992Z,3.03
2022-11-09T08:23:12.411Z,2.45
2022-11-09T08:25:38.924Z,2.95
2022-11-09T08:28:05.177Z,2.88
2022-11-09T08:30:31.673Z,2.17
2022-11-09T08:33:01.466Z,2.92
2022-11-09T08:35:27.970Z,3.70
2022-11-09T08:37:54.799Z,3.08
2022-11-09T08:40:22.464Z,3.08
2022-11-09T08:42:48.798Z,2.25
2022-11-09T08:45:15.384Z,2.00
2022-11-09T08:47:41.665Z,2.60
2022-11-09T08:50:08.789Z,3.00
2022-11-09T08:52:35.116Z,2.55
2022-11-09T08:55:01.753Z,2.50
2022-11-09T08:57:28.273Z,2.83
2022-11-09T08:59:54.538Z,3.08
2022-11-09T09:02:21.180Z,3.65
2022-11-09T09:04:47.526Z,3.05
2022-11-09T09:07:14.067Z,2.30
2022-11-09T09:09:40.696Z,3.38
2022-11-09T09:12:07.978Z,2.97
2022-11-09T09:14:34.382Z,2.22
2022-11-09T09:17:01.079Z,3.10
2022-11-09T09:19:27.386Z,3.58
2022-11-09T09:21:53.675Z,2.70
2022-11-09T09:24:20.006Z,3.13
2022-11-09T09:26:46.250Z,2.83
2022-11-09T09:29:13.455Z,2.30
2022-11-09T09:31:40.218Z,2.65
2022-11-09T09:34:06.886Z,2.88
2022-11-09T09:36:35.157Z,2.50
2022-11-09T09:39:01.751Z,2.42
2022-11-09T09:41:36.198Z,2.30
2022-11-09T09:44:08.613Z,2.78
2022-11-09T09:46:42.184Z,2.80
2022-11-09T09:49:17.146Z,3.08
2022-11-09T09:52:02.266Z,2.40
2022-11-09T09:54:33.864Z,4.22
2022-11-09T09:57:01.409Z,2.83
2022-11-09T09:59:30.482Z,2.80
2022-11-09T10:01:58.451Z,2.78
2022-11-09T10:04:45.113Z,2.10
2022-11-09T10:07:15.053Z,1.88
2022-11-09T10:09:53.692Z,2.97
2022-11-09T10:12:19.923Z,2.70
2022-11-09T10:14:46.162Z,3.65
2022-11-09T10:17:26.002Z,2.53
2022-11-09T10:20:15.476Z,2.75
2022-11-09T10:22:48.032Z,3.10
2022-11-09T10:25:27.591Z,2.97
2022-11-09T10:28:03.782Z,3.85
2022-11-09T10:30:30.394Z,2.78
2022-11-09T10:32:59.231Z,2.58
2022-11-09T10:35:35.263Z,2.72
2022-11-09T10:38:01.678Z,2.85
2022-11-09T10:40:33.828Z,2.75
2022-11-09T10:43:01.057Z,1.63
2022-11-09T10:45:30.413Z,2.08
2022-11-09T10:47:57.030Z,2.72
2022-11-09T10:50:29.791Z,2.08
2022-11-09T10:53:16.122Z,2.90
2022-11-09T10:55:51.512Z,1.95
2022-11-09T10:58:26.730Z,2.30
2022-11-09T11:03:19.684Z,2.45
2022-11-09T11:05:56.450Z,2.70
2022-11-09T11:08:24.588Z,2.45
2022-11-09T11:10:58.601Z,2.88
2022-11-09T11:13:33.038Z,2.65
2022-11-09T11:15:59.402Z,2.88
2022-11-09T11:18:26.268Z,2.83
2022-11-09T11:21:06.973Z,2.65
2022-11-09T11:23:36.845Z,2.10
2022-11-09T11:26:12.082Z,2.00
2022-11-09T11:31:04.908Z,3.47
2022-11-09T11:33:34.055Z,3.28
2022-11-09T11:36:03.333Z,2.28
2022-11-09T11:38:36.425Z,2.33
2022-11-09T11:41:10.972Z,2.92
2022-11-09T11:43:52.199Z,2.58
2022-11-09T11:46:41.824Z,2.67
2022-11-09T11:49:32.923Z,2.97
2022-11-09T11:52:06.045Z,3.60
2022-11-09T11:54:51.073Z,1.90
2022-11-09T11:57:27.992Z,2.03
2022-11-09T12:00:10.222Z,3.00
2022-11-09T12:03:05.640Z,3.15
2022-11-09T12:05:43.999Z,2.63
2022-11-09T12:08:31.493Z,2.25
2022-11-09T12:11:01.109Z,2.08
2022-11-09T12:13:27.383Z,3.20
2022-11-09T12:16:00.542Z,2.88
2022-11-09T12:18:39.023Z,2.42
2022-11-09T12:21:05.255Z,2.33
2022-11-09T12:23:37.552Z,2.63
2022-11-09T12:26:24.174Z,2.63
2022-11-09T12:29:00.654Z,3.53
2022-11-09T12:31:34.343Z,3.33
2022-11-09T12:34:00.579Z,2.60
2022-11-09T12:36:42.625Z,6.28
2022-11-09T12:39:27.039Z,3.10
2022-11-09T12:41:58.227Z,2.22
2022-11-09T12:44:26.082Z,2.35
2022-11-09T12:47:00.199Z,2.15
2022-11-09T12:49:34.794Z,1.75
2022-11-09T12:52:01.175Z,2.15
2022-11-09T12:54:27.763Z,2.53
2022-11-09T12:57:02.507Z,2.30
2022-11-09T12:59:28.789Z,2.65
2022-11-09T13:01:58.960Z,3.35
2022-11-09T13:04:25.689Z,1.63
2022-11-09T13:07:04.222Z,1.58
2022-11-09T13:09:43.863Z,1.88
2022-11-09T13:12:27.769Z,1.52
2022-11-09T13:14:55.217Z,2.10
2022-11-09T13:17:21.751Z,1.83
2022-11-09T13:19:49.982Z,2.00
2022-11-09T13:22:16.254Z,1.77
2022-11-09T13:24:53.801Z,1.98
2022-11-09T13:27:35.181Z,2.75
2022-11-09T13:30:01.612Z,1.55
2022-11-09T13:32:33.392Z,1.48
2022-11-09T13:35:01.103Z,1.60
2022-11-09T13:37:42.444Z,1.98
2022-11-09T13:40:27.707Z,1.95
2022-11-09T13:42:59.256Z,2.53
2022-11-09T13:45:37.537Z,2.42
2022-11-09T13:48:04.999Z,2.33
2022-11-09T13:50:32.181Z,1.75
2022-11-09T13:52:59.470Z,2.78
2022-11-09T13:55:29.105Z,1.90
2022-11-09T13:57:56.133Z,1.85
2022-11-09T14:00:24.247Z,1.70
2022-11-09T14:02:54.859Z,1.80
2022-11-09T14:05:25.407Z,1.60
2022-11-09T14:07:52.937Z,1.80
2022-11-09T14:10:43.987Z,1.92
2022-11-09T14:13:29.896Z,2.53
2022-11-09T14:15:58.866Z,2.33
2022-11-09T14:18:27.954Z,1.80
2022-11-09T14:20:54.277Z,1.98
2022-11-09T14:23:21.863Z,1.98
2022-11-09T14:25:51.141Z,1.90
2022-11-09T14:28:20.523Z,1.80
2022-11-09T14:30:47.134Z,1.58
2022-11-09T14:33:21.696Z,1.90
2022-11-09T14:35:48.167Z,1.77
2022-11-09T14:38:40.674Z,2.03
2022-11-09T14:41:17.334Z,1.90
2022-11-09T14:43:44.418Z,1.58
2022-11-09T14:46:19.038Z,2.15
2022-11-09T14:48:52.632Z,2.08
2022-11-09T14:51:19.326Z,2.67
2022-11-09T14:53:46.262Z,2.10
2022-11-09T14:56:15.195Z,1.90
2022-11-09T14:58:42.380Z,1.40
2022-11-09T15:01:17.754Z,1.45
2022-11-09T15:03:45.104Z,1.90
2022-11-09T15:06:12.457Z,1.60
2022-11-09T15:08:44.660Z,1.85
2022-11-09T15:11:10.962Z,2.08
2022-11-09T15:13:38.678Z,1.85
2022-11-09T15:16:05.738Z,1.98
2022-11-09T15:18:34.508Z,1.75
2022-11-09T15:21:14.797Z,2.10
2022-11-09T15:23:42.511Z,1.48
2022-11-09T15:26:27.479Z,2.42
2022-11-09T15:28:54.028Z,1.88
2022-11-09T15:31:22.609Z,2.25
2022-11-09T15:33:52.193Z,2.25
2022-11-09T15:36:30.714Z,1.60
2022-11-09T15:38:59.450Z,2.40
2022-11-09T15:41:26.295Z,1.73
2022-11-09T15:43:52.786Z,1.65
2022-11-09T15:46:26.461Z,2.95
2022-11-09T15:48:52.841Z,2.35
2022-11-09T15:51:19.607Z,1.90
2022-11-09T15:53:45.896Z,2.00
2022-11-09T15:56:30.126Z,2.67
2022-11-09T15:58:56.387Z,3.28
2022-11-09T16:01:22.702Z,2.30
2022-11-09T16:03:49.126Z,2.63
2022-11-09T16:06:18.966Z,2.83
2022-11-09T16:08:48.546Z,2.90
2022-11-09T16:11:14.823Z,2.53
2022-11-09T16:13:41.075Z,2.22
2022-11-09T16:16:08.315Z,2.97
2022-11-09T16:18:34.805Z,2.33
2022-11-09T16:21:10.326Z,2.10
2022-11-09T16:23:36.909Z,1.98
2022-11-09T16:26:07.186Z,2.20
2022-11-09T16:28:33.445Z,2.35
2022-11-09T16:30:59.699Z,2.28
2022-11-09T16:33:26.097Z,2.25
2022-11-09T16:35:53.138Z,2.25
2022-11-09T16:38:19.694Z,2.83
2022-11-09T16:40:46.126Z,2.25
2022-11-09T16:43:12.403Z,3.00
2022-11-09T16:45:44.640Z,2.30
2022-11-09T16:48:11.641Z,2.60
2022-11-09T16:50:37.983Z,2.47
2022-11-09T16:53:04.277Z,2.78
2022-11-09T16:55:30.643Z,2.35
2022-11-09T16:57:56.900Z,3.13
2022-11-09T17:00:27.701Z,2.47
2022-11-09T17:03:03.989Z,2.45
2022-11-09T17:05:31.561Z,2.42
2022-11-09T17:07:57.813Z,2.20
2022-11-09T17:10:24.085Z,2.33
2022-11-09T17:12:50.370Z,2.55
2022-11-09T17:15:17.209Z,2.22
2022-11-09T17:17:43.500Z,2.42
2022-11-09T17:20:09.989Z,2.25
2022-11-09T17:22:37.054Z,2.88
2022-11-09T17:25:06.089Z,2.28
2022-11-09T17:27:32.478Z,2.83
2022-11-09T17:29:58.730Z,2.42
2022-11-09T17:32:28.030Z,2.80
2022-11-09T17:34:54.639Z,2.47
2022-11-09T17:37:20.926Z,2.33
2022-11-09T17:39:47.191Z,4.28
2022-11-09T17:42:13.433Z,2.53
2022-11-09T17:44:39.718Z,2.58
2022-11-09T17:47:06.020Z,3.17
2022-11-09T17:49:32.274Z,3.50
2022-11-09T17:51:58.658Z,2.70
2022-11-09T17:54:24.909Z,2.70
2022-11-09T17:56:51.498Z,3.50
2022-11-09T17:59:17.745Z,3.47
2022-11-09T18:01:44.277Z,4.43
2022-11-09T18:04:10.956Z,3.30
2022-11-09T18:06:37.732Z,2.55
2022-11-09T18:09:39.141Z,2.58
2022-11-09T18:11:50.429Z,2.83
2022-11-09T18:14:16.779Z,3.20
2022-11-09T18:16:43.130Z,2.30
2022-11-09T18:19:09.379Z,3.45
2022-11-09T18:21:35.629Z,3.42
2022-11-09T18:24:01.929Z,1.90
2022-11-09T18:26:28.424Z,2.60
2022-11-09T18:28:57.937Z,2.25
2022-11-09T18:31:24.401Z,2.65
2022-11-09T18:33:50.854Z,3.10
2022-11-09T18:36:19.285Z,2.67
2022-11-09T18:38:45.608Z,3.45
2022-11-09T18:41:17.633Z,2.20
2022-11-09T18:43:44.521Z,1.98
2022-11-09T18:46:12.250Z,2.75
2022-11-09T18:48:38.563Z,2.15
2022-11-09T18:51:05.564Z,2.97
2022-11-09T18:53:39.048Z,2.60
2022-11-09T18:56:07.192Z,3.38
2022-11-09T18:58:33.850Z,2.35
2022-11-09T19:01:02.079Z,2.40
2022-11-09T19:03:28.424Z,2.08
2022-11-09T19:05:54.905Z,3.90
2022-11-09T19:08:41.284Z,2.83
2022-11-09T19:11:09.803Z,2.60
2022-11-09T19:13:36.161Z,3.15
2022-11-09T19:16:02.423Z,3.20
2022-11-09T19:18:28.829Z,2.97
2022-11-09T19:20:55.277Z,3.47
2022-11-09T19:23:21.584Z,4.03
2022-11-09T19:25:47.927Z,4.95
2022-11-09T19:28:14.199Z,4.43
2022-11-09T19:30:40.481Z,4.38
2022-11-09T19:33:06.757Z,2.80
2022-11-09T19:35:34.107Z,3.78
2022-11-09T19:38:06.067Z,3.05
2022-11-09T19:40:38.437Z,4.03
2022-11-09T19:43:05.991Z,3.97
2022-11-09T19:45:32.313Z,3.97
2022-11-09T19:47:58.801Z,3.10
2022-11-09T19:50:25.074Z,4.28
2022-11-09T19:52:51.392Z,4.07
2022-11-09T19:55:17.634Z,3.78
2022-11-09T19:57:43.972Z,3.05
2022-11-09T20:00:11.166Z,4.95
2022-11-09T20:02:37.433Z,4.25
2022-11-09T20:05:03.907Z,3.90
2022-11-09T20:07:31.699Z,3.70
2022-11-09T20:09:58.311Z,4.55
2022-11-09T20:12:43.254Z,3.90
2022-11-09T20:15:09.513Z,3.83
2022-11-09T20:17:36.018Z,3.63
2022-11-09T20:20:02.302Z,3.47
2022-11-09T20:22:28.646Z,3.58
2022-11-09T20:24:55.006Z,4.57
2022-11-09T20:27:21.399Z,3.63
2022-11-09T20:29:47.662Z,5.00
2022-11-09T20:32:16.659Z,3.35
2022-11-09T20:34:45.455Z,4.90
2022-11-09T20:37:11.730Z,5.30
2022-11-09T20:39:40.536Z,4.00
2022-11-09T20:42:07.223Z,3.47
2022-11-09T20:44:33.572Z,5.43
2022-11-09T20:46:59.852Z,3.85
2022-11-09T20:49:26.622Z,3.85
2022-11-09T20:51:52.917Z,4.05
2022-11-09T20:54:19.516Z,3.88
2022-11-09T20:56:45.834Z,3.35
2022-11-09T20:59:12.123Z,3.35
2022-11-09T21:01:38.442Z,3.38
2022-11-09T21:04:05.094Z,4.15
2022-11-09T21:06:31.503Z,3.55
2022-11-09T21:08:58.325Z,3.65
2022-11-09T21:11:28.475Z,3.30
2022-11-09T21:13:55.213Z,3.80
2022-11-09T21:16:22.934Z,3.95
2022-11-09T21:18:49.274Z,3.05
2022-11-09T21:21:16.946Z,2.65
2022-11-09T21:24:02.018Z,2.90
2022-11-09T21:26:47.110Z,3.42
2022-11-09T21:29:33.246Z,3.83
2022-11-09T21:31:59.826Z,5.18
2022-11-09T21:34:26.209Z,2.95
2022-11-09T21:36:52.472Z,3.03
2022-11-09T21:39:18.858Z,3.38
2022-11-09T21:41:45.133Z,2.70
2022-11-09T21:44:11.829Z,3.47
2022-11-09T21:46:39.009Z,3.25
2022-11-09T21:49:06.283Z,2.50
2022-11-09T21:51:33.237Z,2.75
2022-11-09T21:53:59.565Z,3.80
2022-11-09T21:56:26.238Z,3.95
2022-11-09T21:58:52.670Z,3.53
2022-11-09T22:01:19.070Z,3.65
2022-11-09T22:03:45.845Z,3.90
2022-11-09T22:06:12.395Z,3.65
2022-11-09T22:08:38.806Z,2.95
2022-11-09T22:11:13.056Z,3.63
2022-11-09T22:13:59.033Z,3.75
2022-11-09T22:16:26.081Z,3.10
2022-11-09T22:19:11.213Z,2.90
2022-11-09T22:21:37.614Z,4.30
2022-11-09T22:24:03.956Z,4.50
2022-11-09T22:26:30.994Z,4.28
2022-11-09T22:28:57.837Z,4.97
2022-11-09T22:31:24.499Z,3.58
2022-11-09T22:33:51.031Z,3.38
2022-11-09T22:36:18.378Z,3.92
2022-11-09T22:38:45.562Z,3.70
2022-11-09T22:41:12.669Z,3.40
2022-11-09T22:43:40.088Z,4.05
2022-11-09T22:46:07.167Z,4.63
2022-11-09T22:48:34.163Z,4.15
2022-11-09T22:51:00.414Z,4.03
2022-11-09T22:53:26.841Z,3.92
2022-11-09T22:55:56.989Z,4.03
2022-11-09T22:58:23.699Z,4.95
2022-11-09T23:00:50.441Z,4.70
2022-11-09T23:03:16.835Z,3.55
2022-11-09T23:05:43.176Z,3.38
2022-11-09T23:08:09.815Z,2.60
2022-11-09T23:10:36.485Z,2.85
2022-11-09T23:13:03.241Z,3.53
2022-11-09T23:15:29.637Z,3.30
2022-11-09T23:18:15.488Z,3.83
2022-11-09T23:20:42.210Z,4.00
2022-11-09T23:23:08.749Z,3.72
2022-11-09T23:25:54.381Z,3.00
2022-11-09T23:28:20.640Z,2.78
2022-11-09T23:30:46.908Z,4.28
2022-11-09T23:33:13.182Z,3.83
2022-11-09T23:35:39.604Z,3.63
2022-11-09T23:38:06.171Z,3.28
2022-11-09T23:40:33.648Z,2.72
2022-11-09T23:43:18.265Z,3.53
2022-11-09T23:45:45.015Z,4.47
2022-11-09T23:48:15.580Z,4.63
2022-11-09T23:50:42.012Z,4.72
2022-11-09T23:53:09.009Z,3.60
2022-11-09T23:55:35.314Z,3.75
2022-11-09T23:58:02.250Z,4.35
